sensor_id;sensor_type;location;lat;lon;timestamp;P1;durP1;ratioP1;P2;durP2;ratioP2
22480;SDS011;11407;56.964;-2.212;2024-02-16T00:01:30;5.33;;;3.10;;
22480;SDS011;11407;56.964;-2.212;2024-02-16T00:03:55;6.53;;;3.70;;
22480;SDS011;11407;56.964;-2.212;2024-02-16T00:06:21;3.80;;;3.03;;
22480;SDS011;11407;56.964;-2.212;2024-02-16T00:08:46;4.20;;;2.63;;
22480;SDS011;11407;56.964;-2.212;2024-02-16T00:11:12;3.70;;;2.87;;
22480;SDS011;11407;56.964;-2.212;2024-02-16T00:13:37;4.13;;;2.90;;
22480;SDS011;11407;56.964;-2.212;2024-02-16T00:16:02;3.47;;;2.70;;
22480;SDS011;11407;56.964;-2.212;2024-02-16T00:18:27;4.47;;;3.00;;
22480;SDS011;11407;56.964;-2.212;2024-02-16T00:20:53;3.53;;;2.80;;
22480;SDS011;11407;56.964;-2.212;2024-02-16T00:23:18;3.47;;;2.73;;
22480;SDS011;11407;56.964;-2.212;2024-02-16T00:25:47;3.00;;;2.60;;
22480;SDS011;11407;56.964;-2.212;2024-02-16T00:28:12;3.63;;;2.87;;
22480;SDS011;11407;56.964;-2.212;2024-02-16T00:30:38;3.37;;;2.50;;
22480;SDS011;11407;56.964;-2.212;2024-02-16T00:33:03;3.67;;;3.00;;
22480;SDS011;11407;56.964;-2.212;2024-02-16T00:35:29;3.87;;;3.20;;
22480;SDS011;11407;56.964;-2.212;2024-02-16T00:37:58;4.03;;;3.13;;
22480;SDS011;11407;56.964;-2.212;2024-02-16T00:40:23;5.13;;;3.10;;
22480;SDS011;11407;56.964;-2.212;2024-02-16T00:42:48;3.70;;;2.97;;
22480;SDS011;11407;56.964;-2.212;2024-02-16T00:45:14;3.50;;;2.60;;
22480;SDS011;11407;56.964;-2.212;2024-02-16T00:47:39;3.27;;;2.37;;
22480;SDS011;11407;56.964;-2.212;2024-02-16T00:50:05;4.23;;;3.20;;
22480;SDS011;11407;56.964;-2.212;2024-02-16T00:52:33;3.17;;;2.50;;
22480;SDS011;11407;56.964;-2.212;2024-02-16T00:54:58;2.87;;;2.40;;
22480;SDS011;11407;56.964;-2.212;2024-02-16T00:57:24;3.47;;;2.23;;
22480;SDS011;11407;56.964;-2.212;2024-02-16T00:59:49;3.57;;;2.37;;
22480;SDS011;11407;56.964;-2.212;2024-02-16T01:02:14;3.00;;;2.40;;
22480;SDS011;11407;56.964;-2.212;2024-02-16T01:04:41;2.83;;;2.40;;
22480;SDS011;11407;56.964;-2.212;2024-02-16T01:07:07;5.83;;;2.60;;
22480;SDS011;11407;56.964;-2.212;2024-02-16T01:09:32;3.07;;;2.40;;
22480;SDS011;11407;56.964;-2.212;2024-02-16T01:11:57;2.80;;;2.33;;
22480;SDS011;11407;56.964;-2.212;2024-02-16T01:14:22;2.40;;;2.10;;
22480;SDS011;11407;56.964;-2.212;2024-02-16T01:16:48;2.37;;;2.17;;
22480;SDS011;11407;56.964;-2.212;2024-02-16T01:19:13;3.40;;;2.40;;
22480;SDS011;11407;56.964;-2.212;2024-02-16T01:21:38;2.90;;;2.33;;
22480;SDS011;11407;56.964;-2.212;2024-02-16T01:24:04;2.70;;;2.20;;
22480;SDS011;11407;56.964;-2.212;2024-02-16T01:26:29;2.83;;;2.50;;
22480;SDS011;11407;56.964;-2.212;2024-02-16T01:28:55;3.27;;;2.57;;
22480;SDS011;11407;56.964;-2.212;2024-02-16T01:31:20;2.90;;;2.40;;
22480;SDS011;11407;56.964;-2.212;2024-02-16T01:33:45;2.70;;;2.23;;
22480;SDS011;11407;56.964;-2.212;2024-02-16T01:36:10;2.03;;;1.63;;
22480;SDS011;11407;56.964;-2.212;2024-02-16T01:38:36;2.13;;;1.70;;
22480;SDS011;11407;56.964;-2.212;2024-02-16T01:41:01;1.90;;;1.67;;
22480;SDS011;11407;56.964;-2.212;2024-02-16T01:43:27;2.43;;;1.60;;
22480;SDS011;11407;56.964;-2.212;2024-02-16T01:45:52;1.80;;;1.57;;
22480;SDS011;11407;56.964;-2.212;2024-02-16T01:48:18;2.67;;;1.57;;
22480;SDS011;11407;56.964;-2.212;2024-02-16T01:50:43;2.53;;;1.70;;
22480;SDS011;11407;56.964;-2.212;2024-02-16T01:53:09;1.77;;;1.53;;
22480;SDS011;11407;56.964;-2.212;2024-02-16T01:55:35;1.87;;;1.40;;
22480;SDS011;11407;56.964;-2.212;2024-02-16T01:58:00;1.77;;;1.50;;
22480;SDS011;11407;56.964;-2.212;2024-02-16T02:00:26;1.50;;;1.40;;
22480;SDS011;11407;56.964;-2.212;2024-02-16T02:02:51;1.87;;;1.50;;
22480;SDS011;11407;56.964;-2.212;2024-02-16T02:05:17;1.97;;;1.40;;
22480;SDS011;11407;56.964;-2.212;2024-02-16T02:07:42;1.70;;;1.40;;
22480;SDS011;11407;56.964;-2.212;2024-02-16T02:10:08;1.70;;;1.50;;
22480;SDS011;11407;56.964;-2.212;2024-02-16T02:12:33;1.50;;;1.40;;
22480;SDS011;11407;56.964;-2.212;2024-02-16T02:14:59;2.27;;;1.40;;
22480;SDS011;11407;56.964;-2.212;2024-02-16T02:17:24;1.50;;;1.40;;
22480;SDS011;11407;56.964;-2.212;2024-02-16T02:19:49;2.23;;;1.20;;
22480;SDS011;11407;56.964;-2.212;2024-02-16T02:22:18;1.00;;;0.90;;
22480;SDS011;11407;56.964;-2.212;2024-02-16T02:24:44;1.10;;;0.93;;
22480;SDS011;11407;56.964;-2.212;2024-02-16T02:27:10;1.13;;;1.00;;
22480;SDS011;11407;56.964;-2.212;2024-02-16T02:29:36;1.50;;;1.10;;
22480;SDS011;11407;56.964;-2.212;2024-02-16T02:32:01;0.83;;;0.83;;
22480;SDS011;11407;56.964;-2.212;2024-02-16T02:34:27;1.10;;;0.93;;
22480;SDS011;11407;56.964;-2.212;2024-02-16T02:36:52;1.30;;;0.80;;
22480;SDS011;11407;56.964;-2.212;2024-02-16T02:39:17;1.37;;;1.03;;
22480;SDS011;11407;56.964;-2.212;2024-02-16T02:41:42;2.03;;;1.30;;
22480;SDS011;11407;56.964;-2.212;2024-02-16T02:44:08;1.70;;;1.20;;
22480;SDS011;11407;56.964;-2.212;2024-02-16T02:46:33;3.37;;;2.00;;
22480;SDS011;11407;56.964;-2.212;2024-02-16T02:48:59;1.60;;;1.00;;
22480;SDS011;11407;56.964;-2.212;2024-02-16T02:51:24;1.23;;;1.10;;
22480;SDS011;11407;56.964;-2.212;2024-02-16T02:53:49;1.40;;;1.17;;
22480;SDS011;11407;56.964;-2.212;2024-02-16T02:56:14;2.20;;;1.70;;
22480;SDS011;11407;56.964;-2.212;2024-02-16T02:58:40;1.90;;;1.60;;
22480;SDS011;11407;56.964;-2.212;2024-02-16T03:01:05;1.80;;;0.90;;
22480;SDS011;11407;56.964;-2.212;2024-02-16T03:03:32;1.30;;;1.10;;
22480;SDS011;11407;56.964;-2.212;2024-02-16T03:05:58;1.07;;;0.90;;
22480;SDS011;11407;56.964;-2.212;2024-02-16T03:08:24;1.00;;;0.90;;
22480;SDS011;11407;56.964;-2.212;2024-02-16T03:10:49;1.53;;;1.10;;
22480;SDS011;11407;56.964;-2.212;2024-02-16T03:13:14;1.63;;;1.30;;
22480;SDS011;11407;56.964;-2.212;2024-02-16T03:15:43;1.60;;;1.20;;
22480;SDS011;11407;56.964;-2.212;2024-02-16T03:18:08;1.60;;;1.27;;
22480;SDS011;11407;56.964;-2.212;2024-02-16T03:20:34;1.70;;;1.10;;
22480;SDS011;11407;56.964;-2.212;2024-02-16T03:22:59;1.73;;;1.30;;
22480;SDS011;11407;56.964;-2.212;2024-02-16T03:25:24;1.60;;;1.20;;
22480;SDS011;11407;56.964;-2.212;2024-02-16T03:27:51;1.17;;;1.00;;
22480;SDS011;11407;56.964;-2.212;2024-02-16T03:30:18;1.43;;;1.10;;
22480;SDS011;11407;56.964;-2.212;2024-02-16T03:32:47;1.20;;;1.10;;
22480;SDS011;11407;56.964;-2.212;2024-02-16T03:35:12;1.60;;;1.10;;
22480;SDS011;11407;56.964;-2.212;2024-02-16T03:37:38;1.30;;;1.10;;
22480;SDS011;11407;56.964;-2.212;2024-02-16T03:40:05;1.67;;;1.10;;
22480;SDS011;11407;56.964;-2.212;2024-02-16T03:42:30;1.27;;;1.17;;
22480;SDS011;11407;56.964;-2.212;2024-02-16T03:44:56;2.43;;;1.13;;
22480;SDS011;11407;56.964;-2.212;2024-02-16T03:47:22;1.10;;;1.00;;
22480;SDS011;11407;56.964;-2.212;2024-02-16T03:49:48;1.30;;;1.20;;
22480;SDS011;11407;56.964;-2.212;2024-02-16T03:52:13;0.93;;;0.90;;
22480;SDS011;11407;56.964;-2.212;2024-02-16T03:54:39;1.30;;;1.00;;
22480;SDS011;11407;56.964;-2.212;2024-02-16T03:57:04;1.30;;;1.10;;
22480;SDS011;11407;56.964;-2.212;2024-02-16T03:59:34;1.07;;;0.90;;
22480;SDS011;11407;56.964;-2.212;2024-02-16T04:01:59;1.00;;;0.90;;
22480;SDS011;11407;56.964;-2.212;2024-02-16T04:04:24;1.10;;;0.87;;
22480;SDS011;11407;56.964;-2.212;2024-02-16T04:06:49;1.20;;;1.00;;
22480;SDS011;11407;56.964;-2.212;2024-02-16T04:09:17;1.40;;;1.20;;
22480;SDS011;11407;56.964;-2.212;2024-02-16T04:11:46;0.80;;;0.80;;
22480;SDS011;11407;56.964;-2.212;2024-02-16T04:14:11;2.27;;;1.00;;
22480;SDS011;11407;56.964;-2.212;2024-02-16T04:16:37;1.03;;;0.70;;
22480;SDS011;11407;56.964;-2.212;2024-02-16T04:19:02;0.70;;;0.60;;
22480;SDS011;11407;56.964;-2.212;2024-02-16T04:21:28;1.47;;;0.73;;
22480;SDS011;11407;56.964;-2.212;2024-02-16T04:23:53;0.60;;;0.60;;
22480;SDS011;11407;56.964;-2.212;2024-02-16T04:26:18;0.80;;;0.63;;
22480;SDS011;11407;56.964;-2.212;2024-02-16T04:28:43;0.70;;;0.70;;
22480;SDS011;11407;56.964;-2.212;2024-02-16T04:31:09;0.70;;;0.67;;
22480;SDS011;11407;56.964;-2.212;2024-02-16T04:33:34;0.70;;;0.63;;
22480;SDS011;11407;56.964;-2.212;2024-02-16T04:36:00;0.70;;;0.70;;
22480;SDS011;11407;56.964;-2.212;2024-02-16T04:38:25;0.67;;;0.60;;
22480;SDS011;11407;56.964;-2.212;2024-02-16T04:40:51;0.60;;;0.60;;
22480;SDS011;11407;56.964;-2.212;2024-02-16T04:43:16;1.03;;;0.77;;
22480;SDS011;11407;56.964;-2.212;2024-02-16T04:45:41;0.70;;;0.70;;
22480;SDS011;11407;56.964;-2.212;2024-02-16T04:48:07;0.90;;;0.57;;
22480;SDS011;11407;56.964;-2.212;2024-02-16T04:50:34;0.80;;;0.60;;
22480;SDS011;11407;56.964;-2.212;2024-02-16T04:53:00;1.30;;;0.90;;
22480;SDS011;11407;56.964;-2.212;2024-02-16T04:55:28;0.70;;;0.70;;
22480;SDS011;11407;56.964;-2.212;2024-02-16T04:57:54;1.77;;;0.77;;
22480;SDS011;11407;56.964;-2.212;2024-02-16T05:00:19;0.90;;;0.70;;
22480;SDS011;11407;56.964;-2.212;2024-02-16T05:02:45;0.80;;;0.70;;
22480;SDS011;11407;56.964;-2.212;2024-02-16T05:05:11;1.43;;;0.70;;
22480;SDS011;11407;56.964;-2.212;2024-02-16T05:07:36;1.20;;;0.80;;
22480;SDS011;11407;56.964;-2.212;2024-02-16T05:10:02;0.77;;;0.77;;
22480;SDS011;11407;56.964;-2.212;2024-02-16T05:12:27;1.37;;;0.80;;
22480;SDS011;11407;56.964;-2.212;2024-02-16T05:14:55;0.60;;;0.57;;
22480;SDS011;11407;56.964;-2.212;2024-02-16T05:17:21;0.57;;;0.57;;
22480;SDS011;11407;56.964;-2.212;2024-02-16T05:19:47;0.60;;;0.60;;
22480;SDS011;11407;56.964;-2.212;2024-02-16T05:22:12;0.63;;;0.63;;
22480;SDS011;11407;56.964;-2.212;2024-02-16T05:24:38;0.50;;;0.50;;
22480;SDS011;11407;56.964;-2.212;2024-02-16T05:27:03;0.60;;;0.60;;
22480;SDS011;11407;56.964;-2.212;2024-02-16T05:29:28;0.83;;;0.77;;
22480;SDS011;11407;56.964;-2.212;2024-02-16T05:31:53;0.83;;;0.70;;
22480;SDS011;11407;56.964;-2.212;2024-02-16T05:34:19;1.00;;;0.90;;
22480;SDS011;11407;56.964;-2.212;2024-02-16T05:36:44;0.60;;;0.60;;
22480;SDS011;11407;56.964;-2.212;2024-02-16T05:39:10;0.90;;;0.73;;
22480;SDS011;11407;56.964;-2.212;2024-02-16T05:41:45;1.00;;;0.90;;
22480;SDS011;11407;56.964;-2.212;2024-02-16T05:44:10;0.80;;;0.80;;
22480;SDS011;11407;56.964;-2.212;2024-02-16T05:46:35;1.00;;;0.90;;
22480;SDS011;11407;56.964;-2.212;2024-02-16T05:49:03;0.60;;;0.60;;
22480;SDS011;11407;56.964;-2.212;2024-02-16T05:51:34;1.50;;;0.80;;
22480;SDS011;11407;56.964;-2.212;2024-02-16T05:53:59;0.60;;;0.60;;
22480;SDS011;11407;56.964;-2.212;2024-02-16T05:56:24;0.73;;;0.60;;
22480;SDS011;11407;56.964;-2.212;2024-02-16T05:58:49;1.07;;;0.80;;
22480;SDS011;11407;56.964;-2.212;2024-02-16T06:01:15;0.90;;;0.70;;
22480;SDS011;11407;56.964;-2.212;2024-02-16T06:03:41;0.70;;;0.70;;
22480;SDS011;11407;56.964;-2.212;2024-02-16T06:06:07;1.03;;;0.90;;
22480;SDS011;11407;56.964;-2.212;2024-02-16T06:08:33;1.53;;;0.90;;
22480;SDS011;11407;56.964;-2.212;2024-02-16T06:10:58;1.30;;;0.90;;
22480;SDS011;11407;56.964;-2.212;2024-02-16T06:13:23;1.87;;;0.90;;
22480;SDS011;11407;56.964;-2.212;2024-02-16T06:15:49;1.77;;;1.20;;
22480;SDS011;11407;56.964;-2.212;2024-02-16T06:18:14;1.83;;;1.30;;
22480;SDS011;11407;56.964;-2.212;2024-02-16T06:20:39;3.23;;;1.20;;
22480;SDS011;11407;56.964;-2.212;2024-02-16T06:23:06;2.13;;;1.23;;
22480;SDS011;11407;56.964;-2.212;2024-02-16T06:25:31;2.63;;;1.00;;
22480;SDS011;11407;56.964;-2.212;2024-02-16T06:27:57;1.90;;;1.00;;
22480;SDS011;11407;56.964;-2.212;2024-02-16T06:30:22;2.23;;;1.13;;
22480;SDS011;11407;56.964;-2.212;2024-02-16T06:32:47;2.27;;;1.07;;
22480;SDS011;11407;56.964;-2.212;2024-02-16T06:35:13;1.53;;;1.10;;
22480;SDS011;11407;56.964;-2.212;2024-02-16T06:37:38;3.37;;;0.90;;
22480;SDS011;11407;56.964;-2.212;2024-02-16T06:40:04;2.17;;;0.90;;
22480;SDS011;11407;56.964;-2.212;2024-02-16T06:42:31;0.90;;;0.73;;
22480;SDS011;11407;56.964;-2.212;2024-02-16T06:44:56;1.43;;;0.90;;
22480;SDS011;11407;56.964;-2.212;2024-02-16T06:47:21;0.70;;;0.70;;
22480;SDS011;11407;56.964;-2.212;2024-02-16T06:49:48;1.97;;;0.90;;
22480;SDS011;11407;56.964;-2.212;2024-02-16T06:52:14;2.03;;;1.13;;
22480;SDS011;11407;56.964;-2.212;2024-02-16T06:54:40;0.80;;;0.67;;
22480;SDS011;11407;56.964;-2.212;2024-02-16T06:57:05;0.70;;;0.70;;
22480;SDS011;11407;56.964;-2.212;2024-02-16T06:59:30;1.23;;;0.80;;
22480;SDS011;11407;56.964;-2.212;2024-02-16T07:01:56;1.30;;;1.00;;
22480;SDS011;11407;56.964;-2.212;2024-02-16T07:04:21;1.10;;;0.90;;
22480;SDS011;11407;56.964;-2.212;2024-02-16T07:06:46;1.47;;;1.20;;
22480;SDS011;11407;56.964;-2.212;2024-02-16T07:09:12;1.80;;;1.30;;
22480;SDS011;11407;56.964;-2.212;2024-02-16T07:11:40;3.03;;;1.87;;
22480;SDS011;11407;56.964;-2.212;2024-02-16T07:14:05;2.10;;;1.43;;
22480;SDS011;11407;56.964;-2.212;2024-02-16T07:16:33;2.40;;;1.40;;
22480;SDS011;11407;56.964;-2.212;2024-02-16T07:18:58;3.40;;;1.40;;
22480;SDS011;11407;56.964;-2.212;2024-02-16T07:21:23;2.70;;;1.67;;
22480;SDS011;11407;56.964;-2.212;2024-02-16T07:23:51;4.60;;;3.00;;
22480;SDS011;11407;56.964;-2.212;2024-02-16T07:26:16;4.13;;;3.53;;
22480;SDS011;11407;56.964;-2.212;2024-02-16T07:28:42;4.37;;;3.20;;
22480;SDS011;11407;56.964;-2.212;2024-02-16T07:31:07;3.57;;;2.90;;
22480;SDS011;11407;56.964;-2.212;2024-02-16T07:33:33;4.93;;;3.00;;
22480;SDS011;11407;56.964;-2.212;2024-02-16T07:35:58;4.13;;;3.13;;
22480;SDS011;11407;56.964;-2.212;2024-02-16T07:38:23;2.77;;;2.40;;
22480;SDS011;11407;56.964;-2.212;2024-02-16T07:40:49;2.97;;;2.33;;
22480;SDS011;11407;56.964;-2.212;2024-02-16T07:43:15;4.13;;;2.40;;
22480;SDS011;11407;56.964;-2.212;2024-02-16T07:45:40;3.07;;;2.00;;
22480;SDS011;11407;56.964;-2.212;2024-02-16T07:48:06;3.13;;;2.20;;
22480;SDS011;11407;56.964;-2.212;2024-02-16T07:50:32;4.40;;;2.60;;
22480;SDS011;11407;56.964;-2.212;2024-02-16T07:52:58;2.90;;;2.13;;
22480;SDS011;11407;56.964;-2.212;2024-02-16T07:55:23;2.63;;;2.00;;
22480;SDS011;11407;56.964;-2.212;2024-02-16T07:57:49;2.70;;;1.80;;
22480;SDS011;11407;56.964;-2.212;2024-02-16T08:00:15;2.27;;;1.97;;
22480;SDS011;11407;56.964;-2.212;2024-02-16T08:02:41;2.20;;;1.73;;
22480;SDS011;11407;56.964;-2.212;2024-02-16T08:05:08;2.20;;;2.00;;
22480;SDS011;11407;56.964;-2.212;2024-02-16T08:07:33;2.23;;;2.00;;
22480;SDS011;11407;56.964;-2.212;2024-02-16T08:09:59;2.70;;;2.17;;
22480;SDS011;11407;56.964;-2.212;2024-02-16T08:12:25;2.67;;;2.07;;
22480;SDS011;11407;56.964;-2.212;2024-02-16T08:14:53;2.67;;;2.40;;
22480;SDS011;11407;56.964;-2.212;2024-02-16T08:17:18;2.87;;;2.57;;
22480;SDS011;11407;56.964;-2.212;2024-02-16T08:19:43;4.07;;;3.67;;
22480;SDS011;11407;56.964;-2.212;2024-02-16T08:22:08;3.73;;;2.90;;
22480;SDS011;11407;56.964;-2.212;2024-02-16T08:24:34;4.03;;;2.60;;
22480;SDS011;11407;56.964;-2.212;2024-02-16T08:26:59;4.73;;;2.80;;
22480;SDS011;11407;56.964;-2.212;2024-02-16T08:29:25;3.73;;;2.97;;
22480;SDS011;11407;56.964;-2.212;2024-02-16T08:31:54;3.20;;;2.57;;
22480;SDS011;11407;56.964;-2.212;2024-02-16T08:34:19;4.83;;;3.10;;
22480;SDS011;11407;56.964;-2.212;2024-02-16T08:40:00;3.67;;;2.83;;
22480;SDS011;11407;56.964;-2.212;2024-02-16T08:42:26;2.83;;;2.37;;
22480;SDS011;11407;56.964;-2.212;2024-02-16T08:44:51;5.83;;;3.03;;
22480;SDS011;11407;56.964;-2.212;2024-02-16T08:47:17;3.33;;;2.83;;
22480;SDS011;11407;56.964;-2.212;2024-02-16T08:49:42;3.90;;;2.33;;
22480;SDS011;11407;56.964;-2.212;2024-02-16T08:52:07;2.97;;;1.80;;
22480;SDS011;11407;56.964;-2.212;2024-02-16T08:54:33;2.07;;;1.80;;
22480;SDS011;11407;56.964;-2.212;2024-02-16T08:56:58;3.23;;;2.10;;
22480;SDS011;11407;56.964;-2.212;2024-02-16T08:59:25;2.87;;;2.00;;
22480;SDS011;11407;56.964;-2.212;2024-02-16T09:01:51;1.47;;;1.20;;
22480;SDS011;11407;56.964;-2.212;2024-02-16T09:04:17;2.10;;;1.27;;
22480;SDS011;11407;56.964;-2.212;2024-02-16T09:06:42;1.70;;;1.20;;
22480;SDS011;11407;56.964;-2.212;2024-02-16T09:09:07;1.20;;;1.10;;
22480;SDS011;11407;56.964;-2.212;2024-02-16T09:11:32;2.50;;;1.30;;
22480;SDS011;11407;56.964;-2.212;2024-02-16T09:13:58;2.50;;;1.00;;
22480;SDS011;11407;56.964;-2.212;2024-02-16T09:16:24;1.20;;;1.10;;
22480;SDS011;11407;56.964;-2.212;2024-02-16T09:18:49;2.00;;;1.50;;
22480;SDS011;11407;56.964;-2.212;2024-02-16T09:21:14;2.37;;;2.17;;
22480;SDS011;11407;56.964;-2.212;2024-02-16T09:23:40;8.07;;;2.53;;
22480;SDS011;11407;56.964;-2.212;2024-02-16T09:26:05;12.43;;;3.20;;
22480;SDS011;11407;56.964;-2.212;2024-02-16T09:28:30;24.20;;;4.50;;
22480;SDS011;11407;56.964;-2.212;2024-02-16T09:30:56;24.13;;;4.73;;
22480;SDS011;11407;56.964;-2.212;2024-02-16T09:33:22;18.43;;;4.30;;
22480;SDS011;11407;56.964;-2.212;2024-02-16T09:35:47;23.23;;;5.30;;
22480;SDS011;11407;56.964;-2.212;2024-02-16T09:38:13;17.87;;;5.00;;
22480;SDS011;11407;56.964;-2.212;2024-02-16T09:40:38;16.87;;;4.63;;
22480;SDS011;11407;56.964;-2.212;2024-02-16T09:43:04;14.43;;;4.40;;
22480;SDS011;11407;56.964;-2.212;2024-02-16T09:45:29;18.20;;;4.57;;
22480;SDS011;11407;56.964;-2.212;2024-02-16T09:47:55;20.30;;;5.10;;
22480;SDS011;11407;56.964;-2.212;2024-02-16T09:50:21;20.90;;;4.10;;
22480;SDS011;11407;56.964;-2.212;2024-02-16T09:52:49;20.63;;;4.50;;
22480;SDS011;11407;56.964;-2.212;2024-02-16T09:55:15;13.23;;;4.43;;
22480;SDS011;11407;56.964;-2.212;2024-02-16T09:57:41;9.17;;;2.80;;
22480;SDS011;11407;56.964;-2.212;2024-02-16T10:00:06;6.43;;;1.93;;
22480;SDS011;11407;56.964;-2.212;2024-02-16T10:02:44;3.87;;;1.27;;
22480;SDS011;11407;56.964;-2.212;2024-02-16T10:05:19;1.30;;;0.90;;
22480;SDS011;11407;56.964;-2.212;2024-02-16T10:07:45;1.07;;;0.90;;
22480;SDS011;11407;56.964;-2.212;2024-02-16T10:10:24;1.60;;;0.80;;
22480;SDS011;11407;56.964;-2.212;2024-02-16T10:12:49;1.40;;;1.00;;
22480;SDS011;11407;56.964;-2.212;2024-02-16T10:15:21;1.07;;;0.80;;
22480;SDS011;11407;56.964;-2.212;2024-02-16T10:17:59;0.70;;;0.70;;
22480;SDS011;11407;56.964;-2.212;2024-02-16T10:20:25;1.60;;;0.63;;
22480;SDS011;11407;56.964;-2.212;2024-02-16T10:23:01;2.60;;;0.70;;
22480;SDS011;11407;56.964;-2.212;2024-02-16T10:25:27;1.33;;;0.60;;
22480;SDS011;11407;56.964;-2.212;2024-02-16T10:27:53;0.60;;;0.50;;
22480;SDS011;11407;56.964;-2.212;2024-02-16T10:30:20;2.20;;;0.60;;
22480;SDS011;11407;56.964;-2.212;2024-02-16T10:32:47;0.53;;;0.53;;
22480;SDS011;11407;56.964;-2.212;2024-02-16T10:35:12;0.80;;;0.60;;
22480;SDS011;11407;56.964;-2.212;2024-02-16T10:37:38;1.97;;;1.40;;
22480;SDS011;11407;56.964;-2.212;2024-02-16T10:40:05;1.37;;;0.73;;
22480;SDS011;11407;56.964;-2.212;2024-02-16T10:42:32;0.80;;;0.50;;
22480;SDS011;11407;56.964;-2.212;2024-02-16T10:44:59;0.50;;;0.50;;
22480;SDS011;11407;56.964;-2.212;2024-02-16T10:47:25;0.70;;;0.60;;
22480;SDS011;11407;56.964;-2.212;2024-02-16T10:50:02;1.27;;;0.47;;
22480;SDS011;11407;56.964;-2.212;2024-02-16T10:52:28;0.30;;;0.30;;
22480;SDS011;11407;56.964;-2.212;2024-02-16T10:54:54;0.80;;;0.50;;
22480;SDS011;11407;56.964;-2.212;2024-02-16T10:57:20;1.80;;;0.70;;
22480;SDS011;11407;56.964;-2.212;2024-02-16T10:59:48;0.77;;;0.60;;
22480;SDS011;11407;56.964;-2.212;2024-02-16T11:02:15;0.93;;;0.50;;
22480;SDS011;11407;56.964;-2.212;2024-02-16T11:04:44;0.50;;;0.50;;
22480;SDS011;11407;56.964;-2.212;2024-02-16T11:07:19;0.63;;;0.50;;
22480;SDS011;11407;56.964;-2.212;2024-02-16T11:09:45;0.80;;;0.50;;
22480;SDS011;11407;56.964;-2.212;2024-02-16T11:12:13;1.00;;;0.50;;
22480;SDS011;11407;56.964;-2.212;2024-02-16T11:14:43;0.57;;;0.37;;
22480;SDS011;11407;56.964;-2.212;2024-02-16T11:17:10;1.73;;;0.40;;
22480;SDS011;11407;56.964;-2.212;2024-02-16T11:19:36;0.50;;;0.50;;
22480;SDS011;11407;56.964;-2.212;2024-02-16T11:22:04;0.60;;;0.50;;
22480;SDS011;11407;56.964;-2.212;2024-02-16T11:24:33;0.50;;;0.50;;
22480;SDS011;11407;56.964;-2.212;2024-02-16T11:27:03;0.80;;;0.60;;
22480;SDS011;11407;56.964;-2.212;2024-02-16T11:29:32;0.77;;;0.60;;
22480;SDS011;11407;56.964;-2.212;2024-02-16T11:31:58;0.70;;;0.40;;
22480;SDS011;11407;56.964;-2.212;2024-02-16T11:34:24;0.40;;;0.40;;
22480;SDS011;11407;56.964;-2.212;2024-02-16T11:36:54;0.40;;;0.40;;
22480;SDS011;11407;56.964;-2.212;2024-02-16T11:39:20;0.50;;;0.50;;
22480;SDS011;11407;56.964;-2.212;2024-02-16T11:41:45;0.47;;;0.40;;
22480;SDS011;11407;56.964;-2.212;2024-02-16T11:44:12;0.40;;;0.30;;
22480;SDS011;11407;56.964;-2.212;2024-02-16T11:46:38;0.77;;;0.40;;
22480;SDS011;11407;56.964;-2.212;2024-02-16T11:49:07;1.30;;;0.50;;
22480;SDS011;11407;56.964;-2.212;2024-02-16T11:51:32;0.80;;;0.50;;
22480;SDS011;11407;56.964;-2.212;2024-02-16T11:53:58;0.40;;;0.40;;
22480;SDS011;11407;56.964;-2.212;2024-02-16T11:56:24;0.83;;;0.40;;
22480;SDS011;11407;56.964;-2.212;2024-02-16T11:58:49;0.30;;;0.30;;
22480;SDS011;11407;56.964;-2.212;2024-02-16T12:01:15;0.40;;;0.40;;
22480;SDS011;11407;56.964;-2.212;2024-02-16T12:03:41;0.37;;;0.37;;
22480;SDS011;11407;56.964;-2.212;2024-02-16T12:06:07;0.57;;;0.40;;
22480;SDS011;11407;56.964;-2.212;2024-02-16T12:08:33;0.30;;;0.30;;
22480;SDS011;11407;56.964;-2.212;2024-02-16T12:10:59;0.30;;;0.30;;
22480;SDS011;11407;56.964;-2.212;2024-02-16T12:13:24;0.30;;;0.30;;
22480;SDS011;11407;56.964;-2.212;2024-02-16T12:15:50;0.40;;;0.40;;
22480;SDS011;11407;56.964;-2.212;2024-02-16T12:18:23;0.30;;;0.30;;
22480;SDS011;11407;56.964;-2.212;2024-02-16T12:21:01;0.40;;;0.40;;
22480;SDS011;11407;56.964;-2.212;2024-02-16T12:23:29;0.40;;;0.40;;
22480;SDS011;11407;56.964;-2.212;2024-02-16T12:25:58;0.37;;;0.30;;
22480;SDS011;11407;56.964;-2.212;2024-02-16T12:28:24;0.30;;;0.30;;
22480;SDS011;11407;56.964;-2.212;2024-02-16T12:30:50;0.40;;;0.40;;
22480;SDS011;11407;56.964;-2.212;2024-02-16T12:33:15;0.40;;;0.40;;
22480;SDS011;11407;56.964;-2.212;2024-02-16T12:35:41;0.30;;;0.30;;
22480;SDS011;11407;56.964;-2.212;2024-02-16T12:38:06;0.50;;;0.50;;
22480;SDS011;11407;56.964;-2.212;2024-02-16T12:40:32;0.30;;;0.30;;
22480;SDS011;11407;56.964;-2.212;2024-02-16T12:42:58;0.40;;;0.40;;
22480;SDS011;11407;56.964;-2.212;2024-02-16T12:45:23;0.40;;;0.40;;
22480;SDS011;11407;56.964;-2.212;2024-02-16T12:47:49;1.97;;;1.50;;
22480;SDS011;11407;56.964;-2.212;2024-02-16T12:50:15;1.97;;;0.70;;
22480;SDS011;11407;56.964;-2.212;2024-02-16T12:52:40;1.23;;;0.30;;
22480;SDS011;11407;56.964;-2.212;2024-02-16T12:55:06;1.13;;;0.60;;
22480;SDS011;11407;56.964;-2.212;2024-02-16T12:57:31;0.57;;;0.50;;
22480;SDS011;11407;56.964;-2.212;2024-02-16T12:59:56;0.50;;;0.40;;
22480;SDS011;11407;56.964;-2.212;2024-02-16T13:02:22;0.70;;;0.60;;
22480;SDS011;11407;56.964;-2.212;2024-02-16T13:04:47;1.80;;;0.90;;
22480;SDS011;11407;56.964;-2.212;2024-02-16T13:07:12;0.77;;;0.50;;
22480;SDS011;11407;56.964;-2.212;2024-02-16T13:09:38;2.00;;;0.60;;
22480;SDS011;11407;56.964;-2.212;2024-02-16T13:12:03;1.37;;;0.67;;
22480;SDS011;11407;56.964;-2.212;2024-02-16T13:14:28;1.20;;;0.73;;
22480;SDS011;11407;56.964;-2.212;2024-02-16T13:16:54;0.90;;;0.50;;
22480;SDS011;11407;56.964;-2.212;2024-02-16T13:19:19;1.50;;;0.60;;
22480;SDS011;11407;56.964;-2.212;2024-02-16T13:21:44;1.10;;;0.60;;
22480;SDS011;11407;56.964;-2.212;2024-02-16T13:24:09;1.20;;;0.60;;
22480;SDS011;11407;56.964;-2.212;2024-02-16T13:26:35;0.83;;;0.50;;
22480;SDS011;11407;56.964;-2.212;2024-02-16T13:29:00;0.97;;;0.70;;
22480;SDS011;11407;56.964;-2.212;2024-02-16T13:31:25;1.23;;;0.50;;
22480;SDS011;11407;56.964;-2.212;2024-02-16T13:33:52;1.87;;;0.90;;
22480;SDS011;11407;56.964;-2.212;2024-02-16T13:36:18;1.67;;;1.10;;
22480;SDS011;11407;56.964;-2.212;2024-02-16T13:38:43;3.60;;;1.90;;
22480;SDS011;11407;56.964;-2.212;2024-02-16T13:41:08;1.00;;;0.70;;
22480;SDS011;11407;56.964;-2.212;2024-02-16T13:43:34;0.90;;;0.90;;
22480;SDS011;11407;56.964;-2.212;2024-02-16T13:45:59;1.47;;;0.70;;
22480;SDS011;11407;56.964;-2.212;2024-02-16T13:48:25;2.07;;;0.60;;
22480;SDS011;11407;56.964;-2.212;2024-02-16T13:50:50;1.90;;;0.70;;
22480;SDS011;11407;56.964;-2.212;2024-02-16T13:53:16;1.43;;;0.60;;
22480;SDS011;11407;56.964;-2.212;2024-02-16T13:55:42;1.03;;;0.70;;
22480;SDS011;11407;56.964;-2.212;2024-02-16T13:58:07;2.50;;;0.40;;
22480;SDS011;11407;56.964;-2.212;2024-02-16T14:00:33;0.40;;;0.40;;
22480;SDS011;11407;56.964;-2.212;2024-02-16T14:02:58;3.10;;;0.53;;
22480;SDS011;11407;56.964;-2.212;2024-02-16T14:05:24;1.70;;;0.50;;
22480;SDS011;11407;56.964;-2.212;2024-02-16T14:07:50;1.80;;;0.50;;
22480;SDS011;11407;56.964;-2.212;2024-02-16T14:10:15;1.37;;;0.40;;
22480;SDS011;11407;56.964;-2.212;2024-02-16T14:12:41;1.80;;;0.43;;
22480;SDS011;11407;56.964;-2.212;2024-02-16T14:15:06;1.37;;;0.60;;
22480;SDS011;11407;56.964;-2.212;2024-02-16T14:17:32;0.90;;;0.40;;
22480;SDS011;11407;56.964;-2.212;2024-02-16T14:19:57;0.50;;;0.50;;
22480;SDS011;11407;56.964;-2.212;2024-02-16T14:22:23;0.60;;;0.50;;
22480;SDS011;11407;56.964;-2.212;2024-02-16T14:24:49;0.60;;;0.50;;
22480;SDS011;11407;56.964;-2.212;2024-02-16T14:27:14;1.67;;;0.50;;
22480;SDS011;11407;56.964;-2.212;2024-02-16T14:29:39;0.80;;;0.80;;